sensor_id;sensor_type;location;lat;lon;timestamp;pressure;altitude;pressure_sealevel;temperature;humidity
15007;BME280;7599;50.748;13.142;2023-07-29T00:00:32;95153.41;;;20.88;58.00
15007;BME280;7599;50.748;13.142;2023-07-29T00:03:35;95143.66;;;20.87;58.19
15007;BME280;7599;50.748;13.142;2023-07-29T00:06:39;95149.13;;;20.87;58.31
15007;BME280;7599;50.748;13.142;2023-07-29T00:09:41;95148.72;;;20.89;57.97
15007;BME280;7599;50.748;13.142;2023-07-29T00:12:44;95134.34;;;20.77;58.21
15007;BME280;7599;50.748;13.142;2023-07-29T00:15:46;95140.53;;;20.85;58.13
15007;BME280;7599;50.748;13.142;2023-07-29T00:18:49;95153.81;;;20.87;58.08
15007;BME280;7599;50.748;13.142;2023-07-29T00:21:53;95139.38;;;20.86;58.39
15007;BME280;7599;50.748;13.142;2023-07-29T00:24:55;95142.13;;;20.86;58.00
15007;BME280;7599;50.748;13.142;2023-07-29T00:27:58;95143.25;;;20.85;58.11
15007;BME280;7599;50.748;13.142;2023-07-29T00:31:01;95129.59;;;20.85;58.05
15007;BME280;7599;50.748;13.142;2023-07-29T00:34:04;95126.50;;;20.87;58.20
15007;BME280;7599;50.748;13.142;2023-07-29T00:37:08;95127.69;;;20.86;57.95
15007;BME280;7599;50.748;13.142;2023-07-29T00:40:14;95109.00;;;20.77;58.10
15007;BME280;7599;50.748;13.142;2023-07-29T00:43:18;95108.56;;;20.86;58.26
15007;BME280;7599;50.748;13.142;2023-07-29T00:46:21;95114.41;;;20.84;58.14
15007;BME280;7599;50.748;13.142;2023-07-29T00:49:24;95111.28;;;20.86;58.26
15007;BME280;7599;50.748;13.142;2023-07-29T00:52:28;95116.75;;;20.86;57.65
15007;BME280;7599;50.748;13.142;2023-07-29T00:55:31;95109.00;;;20.77;58.37
15007;BME280;7599;50.748;13.142;2023-07-29T00:58:34;95118.69;;;20.85;58.17
15007;BME280;7599;50.748;13.142;2023-07-29T01:01:36;95106.97;;;20.84;57.98
15007;BME280;7599;50.748;13.142;2023-07-29T01:04:39;95095.72;;;20.75;57.95
15007;BME280;7599;50.748;13.142;2023-07-29T01:07:47;95105.81;;;20.86;58.13
15007;BME280;7599;50.748;13.142;2023-07-29T01:10:58;95107.75;;;20.85;58.26
15007;BME280;7599;50.748;13.142;2023-07-29T01:14:07;95106.97;;;20.84;58.11
15007;BME280;7599;50.748;13.142;2023-07-29T01:17:15;95101.53;;;20.84;58.14
15007;BME280;7599;50.748;13.142;2023-07-29T01:20:23;95102.28;;;20.85;57.96
15007;BME280;7599;50.748;13.142;2023-07-29T01:23:30;95109.34;;;20.86;57.75
15007;BME280;7599;50.748;13.142;2023-07-29T01:26:33;95104.66;;;20.87;58.12
15007;BME280;7599;50.748;13.142;2023-07-29T01:29:36;95098.00;;;20.84;58.36
15007;BME280;7599;50.748;13.142;2023-07-29T01:32:43;95098.41;;;20.86;58.54
15007;BME280;7599;50.748;13.142;2023-07-29T01:35:52;95090.59;;;20.84;58.41
15007;BME280;7599;50.748;13.142;2023-07-29T01:38:59;95074.28;;;20.77;57.96
15007;BME280;7599;50.748;13.142;2023-07-29T01:42:04;95091.38;;;20.85;57.70
15007;BME280;7599;50.748;13.142;2023-07-29T01:45:08;95085.53;;;20.87;58.30
15007;BME280;7599;50.748;13.142;2023-07-29T01:48:11;95078.88;;;20.88;57.76
15007;BME280;7599;50.748;13.142;2023-07-29T01:51:13;95074.97;;;20.85;58.05
15007;BME280;7599;50.748;13.142;2023-07-29T01:54:17;95055.53;;;20.76;58.29
15007;BME280;7599;50.748;13.142;2023-07-29T01:57:20;95080.44;;;20.85;57.95
15007;BME280;7599;50.748;13.142;2023-07-29T02:00:23;95081.25;;;20.86;58.08
15007;BME280;7599;50.748;13.142;2023-07-29T02:03:25;95094.91;;;20.86;57.89
15007;BME280;7599;50.748;13.142;2023-07-29T02:06:28;95094.53;;;20.80;58.10
15007;BME280;7599;50.748;13.142;2023-07-29T02:09:32;95106.59;;;20.86;58.12
15007;BME280;7599;50.748;13.142;2023-07-29T02:12:34;95107.38;;;20.87;58.16
15007;BME280;7599;50.748;13.142;2023-07-29T02:15:37;95091.03;;;20.76;58.15
15007;BME280;7599;50.748;13.142;2023-07-29T02:18:39;95108.16;;;20.87;58.35
15007;BME280;7599;50.748;13.142;2023-07-29T02:21:42;95105.81;;;20.86;58.04
15007;BME280;7599;50.748;13.142;2023-07-29T02:24:46;95105.81;;;20.86;58.61
15007;BME280;7599;50.748;13.142;2023-07-29T02:27:48;95109.69;;;20.88;57.80
15007;BME280;7599;50.748;13.142;2023-07-29T02:31:09;95101.94;;;20.79;58.46
15007;BME280;7599;50.748;13.142;2023-07-29T02:34:13;95117.13;;;20.84;57.85
15007;BME280;7599;50.748;13.142;2023-07-29T02:37:15;95114.81;;;20.86;58.16
15007;BME280;7599;50.748;13.142;2023-07-29T02:40:20;95113.22;;;20.85;57.93
15007;BME280;7599;50.748;13.142;2023-07-29T02:43:24;95115.19;;;20.84;58.31
15007;BME280;7599;50.748;13.142;2023-07-29T02:46:26;95120.25;;;20.86;58.12
15007;BME280;7599;50.748;13.142;2023-07-29T02:49:29;95119.50;;;20.86;58.02
15007;BME280;7599;50.748;13.142;2023-07-29T02:52:31;95110.50;;;20.85;58.04
15007;BME280;7599;50.748;13.142;2023-07-29T02:55:39;95120.25;;;20.86;57.92
15007;BME280;7599;50.748;13.142;2023-07-29T02:58:41;95112.84;;;20.83;57.85
15007;BME280;7599;50.748;13.142;2023-07-29T03:01:44;95114.41;;;20.84;58.27
15007;BME280;7599;50.748;13.142;2023-07-29T03:04:47;95096.50;;;20.76;58.34
15007;BME280;7599;50.748;13.142;2023-07-29T03:07:50;95107.41;;;20.79;58.32
15007;BME280;7599;50.748;13.142;2023-07-29T03:10:54;95094.97;;;20.75;58.09
15007;BME280;7599;50.748;13.142;2023-07-29T03:13:57;95107.75;;;20.85;57.85
15007;BME280;7599;50.748;13.142;2023-07-29T03:17:02;95092.22;;;20.75;58.13
15007;BME280;7599;50.748;13.142;2023-07-29T03:20:07;95090.69;;;20.70;58.05
15007;BME280;7599;50.748;13.142;2023-07-29T03:23:09;95105.03;;;20.85;58.18
15007;BME280;7599;50.748;13.142;2023-07-29T03:26:14;95106.97;;;20.84;58.27
15007;BME280;7599;50.748;13.142;2023-07-29T03:29:16;95099.56;;;20.85;58.30
15007;BME280;7599;50.748;13.142;2023-07-29T03:32:19;95102.28;;;20.85;58.21
15007;BME280;7599;50.748;13.142;2023-07-29T03:35:22;95091.00;;;20.83;57.94
15007;BME280;7599;50.748;13.142;2023-07-29T03:38:24;95089.47;;;20.82;58.24
15007;BME280;7599;50.748;13.142;2023-07-29T03:41:29;95081.31;;;20.71;57.99
15007;BME280;7599;50.748;13.142;2023-07-29T03:44:31;95099.97;;;20.83;58.13
15007;BME280;7599;50.748;13.142;2023-07-29T03:47:35;95081.72;;;20.70;57.50
15007;BME280;7599;50.748;13.142;2023-07-29T03:50:37;95099.19;;;20.83;58.17
15007;BME280;7599;50.748;13.142;2023-07-29T03:53:40;95100.75;;;20.84;58.19
15007;BME280;7599;50.748;13.142;2023-07-29T03:56:44;95103.47;;;20.84;58.19
15007;BME280;7599;50.748;13.142;2023-07-29T03:59:47;95104.66;;;20.83;57.99
15007;BME280;7599;50.748;13.142;2023-07-29T04:02:49;95112.88;;;20.79;57.80
15007;BME280;7599;50.748;13.142;2023-07-29T04:05:52;95104.31;;;20.81;57.97
15007;BME280;7599;50.748;13.142;2023-07-29T04:08:55;95105.44;;;20.83;57.87
15007;BME280;7599;50.748;13.142;2023-07-29T04:11:59;95106.97;;;20.84;57.91
15007;BME280;7599;50.748;13.142;2023-07-29T04:15:02;95116.38;;;20.83;57.95
15007;BME280;7599;50.748;13.142;2023-07-29T04:18:05;95112.84;;;20.83;57.82
15007;BME280;7599;50.748;13.142;2023-07-29T04:21:08;95102.72;;;20.80;58.38
15007;BME280;7599;50.748;13.142;2023-07-29T04:24:11;95101.94;;;20.83;57.79
15007;BME280;7599;50.748;13.142;2023-07-29T04:27:15;95112.09;;;20.82;58.03
15007;BME280;7599;50.748;13.142;2023-07-29T04:30:17;95100.75;;;20.80;57.98
15007;BME280;7599;50.748;13.142;2023-07-29T04:33:20;95101.94;;;20.83;58.35
15007;BME280;7599;50.748;13.142;2023-07-29T04:36:22;95083.69;;;20.69;57.76
15007;BME280;7599;50.748;13.142;2023-07-29T04:39:25;95088.34;;;20.72;58.08
15007;BME280;7599;50.748;13.142;2023-07-29T04:42:30;95108.97;;;20.80;57.91
15007;BME280;7599;50.748;13.142;2023-07-29T04:45:33;95101.59;;;20.74;57.89
15007;BME280;7599;50.748;13.142;2023-07-29T04:48:35;95106.22;;;20.80;58.04
15007;BME280;7599;50.748;13.142;2023-07-29T04:51:38;95103.56;;;20.73;58.21
15007;BME280;7599;50.748;13.142;2023-07-29T04:54:41;95108.97;;;20.80;58.01
15007;BME280;7599;50.748;13.142;2023-07-29T04:57:47;95104.31;;;20.81;58.28
15007;BME280;7599;50.748;13.142;2023-07-29T05:00:50;95098.03;;;20.80;58.13
15007;BME280;7599;50.748;13.142;2023-07-29T05:03:53;95071.22;;;20.65;57.96
15007;BME280;7599;50.748;13.142;2023-07-29T05:06:56;95091.44;;;20.78;58.08
15007;BME280;7599;50.748;13.142;2023-07-29T05:09:59;95092.97;;;20.79;58.32
15007;BME280;7599;50.748;13.142;2023-07-29T05:13:03;95089.84;;;20.80;58.14
15007;BME280;7599;50.748;13.142;2023-07-29T05:16:06;95080.53;;;20.74;57.82
15007;BME280;7599;50.748;13.142;2023-07-29T05:19:09;95081.28;;;20.78;57.87
15007;BME280;7599;50.748;13.142;2023-07-29T05:22:12;95078.16;;;20.80;57.84
15007;BME280;7599;50.748;13.142;2023-07-29T05:25:14;95075.84;;;20.75;57.90
15007;BME280;7599;50.748;13.142;2023-07-29T05:28:18;95077.00;;;20.77;57.60
15007;BME280;7599;50.748;13.142;2023-07-29T05:31:21;95079.72;;;20.81;58.18
15007;BME280;7599;50.748;13.142;2023-07-29T05:34:24;95072.69;;;20.80;57.82
15007;BME280;7599;50.748;13.142;2023-07-29T05:37:27;95067.22;;;20.80;58.45
15007;BME280;7599;50.748;13.142;2023-07-29T05:40:30;95067.22;;;20.80;57.93
15007;BME280;7599;50.748;13.142;2023-07-29T05:43:35;95060.59;;;20.81;57.88
15007;BME280;7599;50.748;13.142;2023-07-29T05:46:37;95059.84;;;20.77;57.97
15007;BME280;7599;50.748;13.142;2023-07-29T05:49:41;95043.56;;;20.59;58.35
15007;BME280;7599;50.748;13.142;2023-07-29T05:52:43;95070.41;;;20.71;58.40
15007;BME280;7599;50.748;13.142;2023-07-29T05:55:46;95078.16;;;20.80;57.65
15007;BME280;7599;50.748;13.142;2023-07-29T05:58:50;95081.66;;;20.80;57.93
15007;BME280;7599;50.748;13.142;2023-07-29T06:01:52;95084.38;;;20.80;57.78
15007;BME280;7599;50.748;13.142;2023-07-29T06:04:55;95085.19;;;20.81;57.86
15007;BME280;7599;50.748;13.142;2023-07-29T06:07:58;95086.72;;;20.82;57.78
15007;BME280;7599;50.748;13.142;2023-07-29T06:11:00;95092.19;;;20.82;58.00
15007;BME280;7599;50.748;13.142;2023-07-29T06:14:04;95094.16;;;20.81;57.73
15007;BME280;7599;50.748;13.142;2023-07-29T06:17:07;95084.81;;;20.75;57.81
15007;BME280;7599;50.748;13.142;2023-07-29T06:20:13;95097.66;;;20.78;57.47
15007;BME280;7599;50.748;13.142;2023-07-29T06:23:15;95096.88;;;20.81;57.77
15007;BME280;7599;50.748;13.142;2023-07-29T06:26:18;95098.84;;;20.81;58.13
15007;BME280;7599;50.748;13.142;2023-07-29T06:29:22;95096.88;;;20.81;57.94
15007;BME280;7599;50.748;13.142;2023-07-29T06:32:24;95106.22;;;20.84;58.64
15007;BME280;7599;50.748;13.142;2023-07-29T06:35:27;95086.72;;;20.82;58.27
15007;BME280;7599;50.748;13.142;2023-07-29T06:38:30;95092.53;;;20.88;58.60
15007;BME280;7599;50.748;13.142;2023-07-29T06:41:33;95088.63;;;20.85;59.12
15007;BME280;7599;50.748;13.142;2023-07-29T06:44:37;95087.47;;;20.86;58.58
15007;BME280;7599;50.748;13.142;2023-07-29T06:47:39;95060.22;;;20.75;59.14
15007;BME280;7599;50.748;13.142;2023-07-29T06:50:42;95057.13;;;20.77;58.87
15007;BME280;7599;50.748;13.142;2023-07-29T06:53:45;95081.63;;;20.84;58.84
15007;BME280;7599;50.748;13.142;2023-07-29T06:56:47;95079.28;;;20.90;58.56
15007;BME280;7599;50.748;13.142;2023-07-29T06:59:51;95076.53;;;20.90;58.23
15007;BME280;7599;50.748;13.142;2023-07-29T07:02:54;95074.91;;;20.96;58.35
15007;BME280;7599;50.748;13.142;2023-07-29T07:05:57;95055.34;;;21.04;58.75
15007;BME280;7599;50.748;13.142;2023-07-29T07:08:59;95057.63;;;21.13;58.28
15007;BME280;7599;50.748;13.142;2023-07-29T07:12:02;95073.50;;;21.29;58.48
15007;BME280;7599;50.748;13.142;2023-07-29T07:15:10;95060.09;;;21.42;58.80
15007;BME280;7599;50.748;13.142;2023-07-29T07:18:13;95059.59;;;21.54;58.27
15007;BME280;7599;50.748;13.142;2023-07-29T07:21:17;95067.78;;;21.57;57.87
15007;BME280;7599;50.748;13.142;2023-07-29T07:24:20;95056.75;;;21.68;58.01
15007;BME280;7599;50.748;13.142;2023-07-29T07:27:22;95052.41;;;21.71;58.21
15007;BME280;7599;50.748;13.142;2023-07-29T07:30:26;95046.84;;;21.81;57.58
15007;BME280;7599;50.748;13.142;2023-07-29T07:33:31;95044.41;;;21.87;57.31
15007;BME280;7599;50.748;13.142;2023-07-29T07:36:34;95036.56;;;21.89;57.57
15007;BME280;7599;50.748;13.142;2023-07-29T07:39:37;95042.00;;;21.93;56.79
15007;BME280;7599;50.748;13.142;2023-07-29T07:42:40;95048.53;;;22.02;56.92
15007;BME280;7599;50.748;13.142;2023-07-29T07:45:44;95034.00;;;22.09;56.43
15007;BME280;7599;50.748;13.142;2023-07-29T07:48:47;95037.50;;;22.09;56.53
15007;BME280;7599;50.748;13.142;2023-07-29T07:51:50;95037.97;;;22.04;56.59
15007;BME280;7599;50.748;13.142;2023-07-29T07:54:52;95028.09;;;22.11;57.25
15007;BME280;7599;50.748;13.142;2023-07-29T07:57:55;95026.13;;;22.15;56.34
15007;BME280;7599;50.748;13.142;2023-07-29T08:01:04;95022.59;;;22.18;56.21
15007;BME280;7599;50.748;13.142;2023-07-29T08:04:07;95018.19;;;22.24;56.29
15007;BME280;7599;50.748;13.142;2023-07-29T08:07:10;95021.31;;;22.26;55.68
15007;BME280;7599;50.748;13.142;2023-07-29T08:10:12;95009.88;;;22.31;55.82
15007;BME280;7599;50.748;13.142;2023-07-29T08:13:15;94999.03;;;22.24;56.17
15007;BME280;7599;50.748;13.142;2023-07-29T08:16:46;95005.50;;;22.37;55.60
15007;BME280;7599;50.748;13.142;2023-07-29T08:19:49;95015.16;;;22.45;55.67
15007;BME280;7599;50.748;13.142;2023-07-29T08:22:52;95016.66;;;22.50;55.54
15007;BME280;7599;50.748;13.142;2023-07-29T08:25:57;95023.97;;;22.60;55.60
15007;BME280;7599;50.748;13.142;2023-07-29T08:29:02;95018.66;;;22.46;55.49
15007;BME280;7599;50.748;13.142;2023-07-29T08:32:07;95026.88;;;22.46;55.33
15007;BME280;7599;50.748;13.142;2023-07-29T08:35:09;95024.31;;;22.35;55.73
15007;BME280;7599;50.748;13.142;2023-07-29T08:38:12;95012.78;;;22.20;55.76
15007;BME280;7599;50.748;13.142;2023-07-29T08:41:19;95034.22;;;22.25;55.91
15007;BME280;7599;50.748;13.142;2023-07-29T08:44:26;95014.78;;;22.16;56.27
15007;BME280;7599;50.748;13.142;2023-07-29T08:47:30;95019.94;;;22.07;56.10
15007;BME280;7599;50.748;13.142;2023-07-29T08:50:34;95034.75;;;22.13;55.83
15007;BME280;7599;50.748;13.142;2023-07-29T08:53:38;95035.34;;;22.28;55.88
15007;BME280;7599;50.748;13.142;2023-07-29T08:56:42;95045.91;;;22.29;55.99
15007;BME280;7599;50.748;13.142;2023-07-29T08:59:47;95037.53;;;22.40;55.53
15007;BME280;7599;50.748;13.142;2023-07-29T09:02:51;95049.97;;;22.45;55.62
15007;BME280;7599;50.748;13.142;2023-07-29T09:05:55;95027.34;;;22.41;55.35
15007;BME280;7599;50.748;13.142;2023-07-29T09:09:01;95034.25;;;22.52;55.08
15007;BME280;7599;50.748;13.142;2023-07-29T09:12:04;95030.69;;;22.55;54.64
15007;BME280;7599;50.748;13.142;2023-07-29T09:15:08;95037.75;;;22.53;54.76
15007;BME280;7599;50.748;13.142;2023-07-29T09:18:15;95029.53;;;22.53;54.72
15007;BME280;7599;50.748;13.142;2023-07-29T09:21:23;95034.25;;;22.52;54.47
15007;BME280;7599;50.748;13.142;2023-07-29T09:24:26;95031.06;;;22.54;54.64
15007;BME280;7599;50.748;13.142;2023-07-29T09:27:31;95018.22;;;22.51;54.46
15007;BME280;7599;50.748;13.142;2023-07-29T09:30:34;95015.50;;;22.51;54.88
15007;BME280;7599;50.748;13.142;2023-07-29T09:33:38;95014.38;;;22.45;54.67
15007;BME280;7599;50.748;13.142;2023-07-29T09:36:41;95014.56;;;22.34;54.99
15007;BME280;7599;50.748;13.142;2023-07-29T09:39:46;95015.06;;;22.25;54.99
15007;BME280;7599;50.748;13.142;2023-07-29T09:42:50;95023.63;;;22.27;54.85
15007;BME280;7599;50.748;13.142;2023-07-29T09:45:53;95024.81;;;22.26;55.08
15007;BME280;7599;50.748;13.142;2023-07-29T09:48:57;95011.16;;;22.23;54.83
15007;BME280;7599;50.748;13.142;2023-07-29T09:51:59;95006.47;;;22.23;55.22
15007;BME280;7599;50.748;13.142;2023-07-29T09:55:04;95022.34;;;22.36;55.25
15007;BME280;7599;50.748;13.142;2023-07-29T09:58:09;95017.78;;;22.25;56.42
15007;BME280;7599;50.748;13.142;2023-07-29T10:01:12;95021.06;;;22.13;56.55
15007;BME280;7599;50.748;13.142;2023-07-29T10:04:17;95014.56;;;22.00;56.43
15007;BME280;7599;50.748;13.142;2023-07-29T10:07:21;95012.19;;;22.02;56.97
15007;BME280;7599;50.748;13.142;2023-07-29T10:10:25;95026.13;;;22.11;56.38
15007;BME280;7599;50.748;13.142;2023-07-29T10:13:29;95013.28;;;22.08;57.25
15007;BME280;7599;50.748;13.142;2023-07-29T10:16:32;95007.81;;;22.08;56.77
15007;BME280;7599;50.748;13.142;2023-07-29T10:19:39;95012.41;;;22.18;56.35
15007;BME280;7599;50.748;13.142;2023-07-29T10:22:42;95007.69;;;22.19;56.27
15007;BME280;7599;50.748;13.142;2023-07-29T10:25:50;95013.19;;;22.19;56.04
15007;BME280;7599;50.748;13.142;2023-07-29T10:28:54;94996.09;;;22.07;56.25
15007;BME280;7599;50.748;13.142;2023-07-29T10:32:07;95010.09;;;22.17;56.09
15007;BME280;7599;50.748;13.142;2023-07-29T10:35:12;95014.41;;;22.11;56.35
15007;BME280;7599;50.748;13.142;2023-07-29T10:38:16;95016.81;;;22.08;56.09
15007;BME280;7599;50.748;13.142;2023-07-29T10:41:18;95014.41;;;22.11;56.43
15007;BME280;7599;50.748;13.142;2023-07-29T10:44:46;95025.78;;;22.09;56.17
15007;BME280;7599;50.748;13.142;2023-07-29T10:47:50;95026.22;;;22.07;55.97
15007;BME280;7599;50.748;13.142;2023-07-29T10:51:26;95034.34;;;22.11;56.12
15007;BME280;7599;50.748;13.142;2023-07-29T10:54:41;95040.66;;;22.08;56.03
15007;BME280;7599;50.748;13.142;2023-07-29T10:57:45;95031.00;;;22.00;56.21
15007;BME280;7599;50.748;13.142;2023-07-29T11:00:49;95033.22;;;22.08;55.92
15007;BME280;7599;50.748;13.142;2023-07-29T11:04:01;95030.09;;;22.06;55.99
15007;BME280;7599;50.748;13.142;2023-07-29T11:07:24;95023.47;;;22.07;55.78
15007;BME280;7599;50.748;13.142;2023-07-29T11:10:42;95009.16;;;21.93;56.15
15007;BME280;7599;50.748;13.142;2023-07-29T11:13:45;95017.31;;;22.00;56.09
15007;BME280;7599;50.748;13.142;2023-07-29T11:16:48;95027.78;;;22.05;55.92
15007;BME280;7599;50.748;13.142;2023-07-29T11:19:52;95030.94;;;22.03;56.09
15007;BME280;7599;50.748;13.142;2023-07-29T11:22:58;95031.72;;;22.04;55.91
15007;BME280;7599;50.748;13.142;2023-07-29T11:26:02;95011.94;;;21.89;56.13
15007;BME280;7599;50.748;13.142;2023-07-29T11:29:05;95035.69;;;21.99;55.83
15007;BME280;7599;50.748;13.142;2023-07-29T11:32:09;95031.03;;;21.96;56.08
15007;BME280;7599;50.748;13.142;2023-07-29T11:35:13;95029.78;;;22.01;55.81
15007;BME280;7599;50.748;13.142;2023-07-29T11:38:19;95025.09;;;22.01;55.72
15007;BME280;7599;50.748;13.142;2023-07-29T11:41:22;95031.38;;;21.98;55.92
15007;BME280;7599;50.748;13.142;2023-07-29T11:44:25;95020.44;;;21.98;55.67
15007;BME280;7599;50.748;13.142;2023-07-29T11:47:28;95025.56;;;21.96;55.68
15007;BME280;7599;50.748;13.142;2023-07-29T11:50:32;95018.88;;;21.97;55.72
15007;BME280;7599;50.748;13.142;2023-07-29T11:53:36;95013.91;;;21.89;55.86
15007;BME280;7599;50.748;13.142;2023-07-29T11:56:39;94998.34;;;21.86;56.04
15007;BME280;7599;50.748;13.142;2023-07-29T11:59:42;94999.00;;;21.93;56.05
15007;BME280;7599;50.748;13.142;2023-07-29T12:02:46;95005.63;;;21.96;55.92
15007;BME280;7599;50.748;13.142;2023-07-29T12:05:50;94984.28;;;21.83;55.80
15007;BME280;7599;50.748;13.142;2023-07-29T12:08:54;94985.75;;;21.92;55.90
15007;BME280;7599;50.748;13.142;2023-07-29T12:11:57;94992.38;;;21.94;55.62
15007;BME280;7599;50.748;13.142;2023-07-29T12:15:01;94995.09;;;21.94;55.62
15007;BME280;7599;50.748;13.142;2023-07-29T12:18:04;94989.97;;;21.96;55.50
15007;BME280;7599;50.748;13.142;2023-07-29T12:21:06;94972.91;;;21.85;55.66
15007;BME280;7599;50.748;13.142;2023-07-29T12:24:12;94984.69;;;21.82;56.71
15007;BME280;7599;50.748;13.142;2023-07-29T12:27:15;94991.97;;;21.92;57.06
15007;BME280;7599;50.748;13.142;2023-07-29T12:30:20;94983.78;;;21.92;56.87
15007;BME280;7599;50.748;13.142;2023-07-29T12:33:30;94955.41;;;21.79;56.89
15007;BME280;7599;50.748;13.142;2023-07-29T12:36:43;94964.22;;;21.94;56.70
15007;BME280;7599;50.748;13.142;2023-07-29T12:39:49;94952.50;;;21.93;56.70
15007;BME280;7599;50.748;13.142;2023-07-29T12:42:53;94947.00;;;21.93;56.42
15007;BME280;7599;50.748;13.142;2023-07-29T12:45:57;94945.47;;;21.92;56.50
15007;BME280;7599;50.748;13.142;2023-07-29T12:48:59;94976.81;;;21.88;58.55
15007;BME280;7599;50.748;13.142;2023-07-29T12:52:03;94955.38;;;21.82;57.51
15007;BME280;7599;50.748;13.142;2023-07-29T12:55:08;94952.94;;;21.88;57.33
15007;BME280;7599;50.748;13.142;2023-07-29T12:58:14;94947.94;;;21.83;57.21
15007;BME280;7599;50.748;13.142;2023-07-29T13:01:17;94969.69;;;21.94;57.36
15007;BME280;7599;50.748;13.142;2023-07-29T13:04:19;94959.97;;;21.89;57.28
15007;BME280;7599;50.748;13.142;2023-07-29T13:07:22;94958.81;;;21.90;57.10
15007;BME280;7599;50.748;13.142;2023-07-29T13:10:26;94956.50;;;21.85;56.81
15007;BME280;7599;50.748;13.142;2023-07-29T13:13:29;94970.47;;;21.94;56.76
15007;BME280;7599;50.748;13.142;2023-07-29T13:16:32;94937.34;;;21.85;56.81
15007;BME280;7599;50.748;13.142;2023-07-29T13:19:36;94959.53;;;21.94;57.18
15007;BME280;7599;50.748;13.142;2023-07-29T13:22:38;94962.28;;;21.94;56.91
15007;BME280;7599;50.748;13.142;2023-07-29T13:25:42;94940.50;;;21.83;57.17
15007;BME280;7599;50.748;13.142;2023-07-29T13:28:45;94957.16;;;21.96;56.72
15007;BME280;7599;50.748;13.142;2023-07-29T13:31:47;94947.00;;;21.93;57.33
15007;BME280;7599;50.748;13.142;2023-07-29T13:34:50;94943.56;;;21.89;56.98
15007;BME280;7599;50.748;13.142;2023-07-29T13:37:53;94942.00;;;21.88;57.04
15007;BME280;7599;50.748;13.142;2023-07-29T13:40:57;94945.50;;;21.89;56.98
15007;BME280;7599;50.748;13.142;2023-07-29T13:44:00;94947.75;;;21.97;57.00
15007;BME280;7599;50.748;13.142;2023-07-29T13:47:03;94939.59;;;21.94;56.96
15007;BME280;7599;50.748;13.142;2023-07-29T13:50:06;94952.03;;;21.98;57.70
15007;BME280;7599;50.748;13.142;2023-07-29T13:53:10;94946.94;;;22.00;57.15
15007;BME280;7599;50.748;13.142;2023-07-29T13:56:15;94944.19;;;22.00;57.64
15007;BME280;7599;50.748;13.142;2023-07-29T13:59:23;94933.81;;;21.88;58.28
15007;BME280;7599;50.748;13.142;2023-07-29T14:02:29;94914.63;;;21.61;61.47
15007;BME280;7599;50.748;13.142;2023-07-29T14:05:33;94938.53;;;21.84;61.83
15007;BME280;7599;50.748;13.142;2023-07-29T14:08:35;94931.09;;;21.84;61.05
15007;BME280;7599;50.748;13.142;2023-07-29T14:11:40;94920.16;;;21.84;60.59
15007;BME280;7599;50.748;13.142;2023-07-29T14:14:42;94934.06;;;21.97;60.91
15007;BME280;7599;50.748;13.142;2023-07-29T14:17:45;94927.09;;;21.93;60.59
15007;BME280;7599;50.748;13.142;2023-07-29T14:20:48;94927.25;;;21.82;60.84
15007;BME280;7599;50.748;13.142;2023-07-29T14:23:52;94922.78;;;21.95;60.20
15007;BME280;7599;50.748;13.142;2023-07-29T14:26:57;94912.69;;;21.89;61.02
15007;BME280;7599;50.748;13.142;2023-07-29T14:30:00;94922.25;;;22.04;60.73
15007;BME280;7599;50.748;13.142;2023-07-29T14:33:12;94904.47;;;21.89;60.89
15007;BME280;7599;50.748;13.142;2023-07-29T14:36:16;94912.06;;;21.77;60.23
15007;BME280;7599;50.748;13.142;2023-07-29T14:39:19;94918.59;;;21.87;59.56
15007;BME280;7599;50.748;13.142;2023-07-29T14:42:23;94909.56;;;21.90;59.55
15007;BME280;7599;50.748;13.142;2023-07-29T14:45:26;94914.97;;;21.94;59.17
15007;BME280;7599;50.748;13.142;2023-07-29T14:48:29;94897.88;;;21.86;58.78
15007;BME280;7599;50.748;13.142;2023-07-29T14:51:31;94916.88;;;21.97;58.73
15007;BME280;7599;50.748;13.142;2023-07-29T14:54:36;94930.88;;;22.02;59.03
15007;BME280;7599;50.748;13.142;2023-07-29T14:57:40;94917.97;;;22.03;59.20
15007;BME280;7599;50.748;13.142;2023-07-29T15:00:43;94919.03;;;21.82;62.36
15007;BME280;7599;50.748;13.142;2023-07-29T15:03:47;94910.91;;;21.75;60.96
15007;BME280;7599;50.748;13.142;2023-07-29T15:06:50;94890.81;;;21.89;59.84
15007;BME280;7599;50.748;13.142;2023-07-29T15:09:53;94902.78;;;21.98;59.26
15007;BME280;7599;50.748;13.142;2023-07-29T15:12:57;94905.00;;;22.07;59.40
15007;BME280;7599;50.748;13.142;2023-07-29T15:15:59;94882.81;;;22.01;59.21
15007;BME280;7599;50.748;13.142;2023-07-29T15:19:02;94920.16;;;22.15;59.15
15007;BME280;7599;50.748;13.142;2023-07-29T15:22:05;94921.34;;;22.14;58.93
15007;BME280;7599;50.748;13.142;2023-07-29T15:25:08;94920.28;;;22.04;59.55
15007;BME280;7599;50.748;13.142;2023-07-29T15:28:13;94910.97;;;21.98;59.30
15007;BME280;7599;50.748;13.142;2023-07-29T15:31:17;94915.13;;;22.10;59.27
15007;BME280;7599;50.748;13.142;2023-07-29T15:34:19;94917.56;;;22.04;58.99
15007;BME280;7599;50.748;13.142;2023-07-29T15:37:25;94916.84;;;22.00;59.84
15007;BME280;7599;50.748;13.142;2023-07-29T15:40:28;94922.56;;;22.09;59.48
15007;BME280;7599;50.748;13.142;2023-07-29T15:43:32;94917.50;;;22.08;59.23
15007;BME280;7599;50.748;13.142;2023-07-29T15:46:34;94920.59;;;22.10;59.00
15007;BME280;7599;50.748;13.142;2023-07-29T15:49:40;94895.97;;;22.10;58.87
15007;BME280;7599;50.748;13.142;2023-07-29T15:52:43;94900.25;;;22.11;58.86
15007;BME280;7599;50.748;13.142;2023-07-29T15:55:46;94916.88;;;21.97;60.04
15007;BME280;7599;50.748;13.142;2023-07-29T15:58:50;94927.72;;;22.04;60.52
15007;BME280;7599;50.748;13.142;2023-07-29T16:01:52;94930.09;;;22.02;60.83
15007;BME280;7599;50.748;13.142;2023-07-29T16:04:55;94935.56;;;22.02;61.56
15007;BME280;7599;50.748;13.142;2023-07-29T16:07:58;94938.69;;;22.04;61.49
15007;BME280;7599;50.748;13.142;2023-07-29T16:11:01;94917.09;;;21.82;61.87
15007;BME280;7599;50.748;13.142;2023-07-29T16:14:05;94939.53;;;21.97;62.25